Portada
METAR-TAF:

METAR-TAF

Aeropuertos :

Aeropuerto de Jerez

Jerez de la Frontera, España

latitud: 36-45N, longitud: 006-04W, altitud: 27 m

Observación

El informe se hizo hace 23 minutos, a las 20:00 UTC
Viento 7 kt del suroeste
Temperatura 21°C
Humedad 78%
Presión 1014 hPa
Visibilidad 10 km o más
sin nubes por debajo de 1500 m y sin presencia de cumulonimbus.

METAR: LEJR 152000Z 23007KT CAVOK 21/17 Q1014

Hora: 22:23 (20:23 UTC)

Pronóstico

El informe se hizo hace 6 horas y 23 minutos, a las 14:00 UTC
Pronóstico válido del 15 a las 15 UTC al 16 a las 15 UTC
Viento 9 kt del suroeste
Visibilidad 10 km o más
sin nubes por debajo de 1500 m y sin presencia de cumulonimbus.
Temporalmente
del 15 a las 23 UTC al 16 a las 09 UTC
Cielo nuboso a una altura de 1000 ft

TAF: LEJR 151400Z 1515/1615 23009KT CAVOK TX28/1515Z TN17/1605Z TEMPO 1523/1609 BKN010

Observaciones y pronósticos meteorológicos de más de 4000 aeropuertos (mensajes METAR y TAF).

Los puntos amarillos y rojos representan las estaciones disponibles.

Ponga el ratón en el punto deseado para ver el nombre de la estación.

Haga clic para ver las observaciones y los pronósticos meteorológicos.

Para cambiar el mapa : haga clic en los botones verdes con una cruz de color negro para hacer un zoom, en el botón verde con un guión para alejar o en las flechas verdes para mapas adyacentes.


METAR-TAF: